createdAt,value
2022-12-22T00:02:06.960Z,5.18
2022-12-22T00:04:53.065Z,4.45
2022-12-22T00:07:38.834Z,4.05
2022-12-22T00:10:27.466Z,5.72
2022-12-22T00:13:15.503Z,4.80
2022-12-22T00:16:01.531Z,5.35
2022-12-22T00:18:50.110Z,4.47
2022-12-22T00:21:35.759Z,3.70
2022-12-22T00:24:21.839Z,3.70
2022-12-22T00:27:07.673Z,3.25
2022-12-22T00:29:59.891Z,4.05
2022-12-22T00:32:51.759Z,3.95
2022-12-22T00:35:41.222Z,3.85
2022-12-22T00:38:39.070Z,3.75
2022-12-22T00:41:25.313Z,3.53
2022-12-22T00:44:13.687Z,3.63
2022-12-22T00:47:01.939Z,2.90
2022-12-22T00:49:50.565Z,3.35
2022-12-22T00:52:38.764Z,3.13
2022-12-22T00:55:36.099Z,2.97
2022-12-22T00:58:25.473Z,3.55
2022-12-22T01:01:11.463Z,3.67
2022-12-22T01:03:57.852Z,3.10
2022-12-22T01:06:47.608Z,3.28
2022-12-22T01:09:33.740Z,3.08
2022-12-22T01:12:19.480Z,3.15
2022-12-22T01:15:05.454Z,3.13
2022-12-22T01:17:51.097Z,2.80
2022-12-22T01:20:37.216Z,2.78
2022-12-22T01:23:29.235Z,2.70
2022-12-22T01:26:15.266Z,2.90
2022-12-22T01:29:01.230Z,2.72
2022-12-22T01:31:50.051Z,2.40
2022-12-22T01:34:36.083Z,2.88
2022-12-22T01:37:24.330Z,2.55
2022-12-22T01:40:12.815Z,2.63
2022-12-22T01:42:58.914Z,2.50
2022-12-22T01:45:50.738Z,2.42
2022-12-22T01:48:55.383Z,2.35
2022-12-22T01:51:46.805Z,2.60
2022-12-22T01:54:34.661Z,2.78
2022-12-22T01:57:20.252Z,2.55
2022-12-22T02:00:06.217Z,2.80
2022-12-22T02:02:51.888Z,2.42
2022-12-22T02:05:40.059Z,2.50
2022-12-22T02:08:54.358Z,2.90
2022-12-22T02:12:16.096Z,2.50
2022-12-22T02:15:21.997Z,2.75
2022-12-22T02:18:34.123Z,2.35
2022-12-22T02:21:24.143Z,2.53
2022-12-22T02:24:32.755Z,2.25
2022-12-22T02:27:20.858Z,2.55
2022-12-22T02:30:17.856Z,2.88
2022-12-22T02:33:09.833Z,2.50
2022-12-22T02:36:20.668Z,2.03
2022-12-22T02:39:40.091Z,1.80
2022-12-22T02:42:37.528Z,2.60
2022-12-22T02:45:35.018Z,1.90
2022-12-22T02:48:23.589Z,1.50
2022-12-22T02:51:20.069Z,2.28
2022-12-22T02:54:06.678Z,1.45
2022-12-22T02:56:52.953Z,1.60
2022-12-22T02:59:38.838Z,1.77
2022-12-22T03:02:24.841Z,2.25
2022-12-22T03:05:13.267Z,1.33
2022-12-22T03:08:04.458Z,1.48
2022-12-22T03:10:53.954Z,1.50
2022-12-22T03:13:39.629Z,1.98
2022-12-22T03:16:27.932Z,1.88
2022-12-22T03:19:16.584Z,1.75
2022-12-22T03:22:02.099Z,1.73
2022-12-22T03:24:48.153Z,1.85
2022-12-22T03:27:15.431Z,2.58
2022-12-22T03:29:42.704Z,2.30
2022-12-22T03:32:09.945Z,2.17
2022-12-22T03:34:37.402Z,1.80
2022-12-22T03:37:09.214Z,2.40
2022-12-22T03:39:36.439Z,2.80
2022-12-22T03:42:24.540Z,2.35
2022-12-22T03:45:10.563Z,2.40
2022-12-22T03:47:37.810Z,2.10
2022-12-22T03:50:07.789Z,1.95
2022-12-22T03:52:35.064Z,2.50
2022-12-22T03:55:02.320Z,3.42
2022-12-22T03:57:29.570Z,2.88
2022-12-22T03:59:59.152Z,2.72
2022-12-22T04:02:26.450Z,2.65
2022-12-22T04:04:53.804Z,2.50
2022-12-22T04:07:21.062Z,2.70
2022-12-22T04:10:06.821Z,2.60
2022-12-22T04:12:52.662Z,3.22
2022-12-22T04:15:20.523Z,2.95
2022-12-22T04:17:47.754Z,2.63
2022-12-22T04:20:15.136Z,3.30
2022-12-22T04:22:42.425Z,5.13
2022-12-22T04:25:10.170Z,6.18
2022-12-22T04:27:42.159Z,6.72
2022-12-22T04:30:10.285Z,5.90
2022-12-22T04:32:37.825Z,5.25
2022-12-22T04:35:11.138Z,6.20
2022-12-22T04:37:38.538Z,6.15
2022-12-22T04:40:06.483Z,5.43
2022-12-22T04:42:33.775Z,5.47
2022-12-22T04:45:01.029Z,5.63
2022-12-22T04:47:28.434Z,3.45
2022-12-22T04:49:55.853Z,3.20
2022-12-22T04:52:23.505Z,3.17
2022-12-22T04:54:50.763Z,3.08
2022-12-22T04:57:18.229Z,3.30
2022-12-22T04:59:50.061Z,3.17
2022-12-22T05:02:17.426Z,3.35
2022-12-22T05:04:47.465Z,3.40
2022-12-22T05:07:14.787Z,3.53
2022-12-22T05:09:42.027Z,3.80
2022-12-22T05:12:27.711Z,4.22
2022-12-22T05:14:54.937Z,4.15
2022-12-22T05:17:24.688Z,4.53
2022-12-22T05:19:51.981Z,4.38
2022-12-22T05:22:19.207Z,4.50
2022-12-22T05:24:46.446Z,4.45
2022-12-22T05:27:13.952Z,4.18
2022-12-22T05:29:41.193Z,11.82
2022-12-22T05:32:08.534Z,7.65
2022-12-22T05:34:38.312Z,19.13
2022-12-22T05:37:05.573Z,10.65
2022-12-22T05:39:32.781Z,4.97
2022-12-22T05:42:02.108Z,4.22
2022-12-22T05:44:29.362Z,4.85
2022-12-22T05:46:58.705Z,4.72
2022-12-22T05:49:25.973Z,5.10
2022-12-22T05:51:56.659Z,4.70
2022-12-22T05:54:23.939Z,5.13
2022-12-22T05:56:51.145Z,5.88
2022-12-22T05:59:18.406Z,5.47
2022-12-22T06:01:48.177Z,5.55
2022-12-22T06:04:17.829Z,6.15
2022-12-22T06:06:45.188Z,6.55
2022-12-22T06:09:12.442Z,6.78
2022-12-22T06:11:41.916Z,6.78
2022-12-22T06:14:14.565Z,7.22
2022-12-22T06:16:41.968Z,8.00
2022-12-22T06:19:09.193Z,7.70
2022-12-22T06:21:39.001Z,6.20
2022-12-22T06:24:06.674Z,7.97
2022-12-22T06:26:37.567Z,7.97
2022-12-22T06:29:04.992Z,8.05
2022-12-22T06:31:32.389Z,8.93
2022-12-22T06:33:59.816Z,8.93
2022-12-22T06:36:29.528Z,8.90
2022-12-22T06:38:58.931Z,8.90
2022-12-22T06:41:47.456Z,10.48
2022-12-22T06:44:17.147Z,11.07
2022-12-22T06:46:47.161Z,12.20
2022-12-22T06:49:16.830Z,12.55
2022-12-22T06:51:45.260Z,13.90
2022-12-22T06:54:12.536Z,15.07
2022-12-22T06:56:39.784Z,15.23
2022-12-22T06:59:07.356Z,15.50
2022-12-22T07:01:39.476Z,15.45
2022-12-22T07:04:06.819Z,15.00
2022-12-22T07:06:34.080Z,15.82
2022-12-22T07:09:03.884Z,14.45
2022-12-22T07:11:33.331Z,14.27
2022-12-22T07:14:03.021Z,14.40
2022-12-22T07:16:32.474Z,14.70
2022-12-22T07:19:01.946Z,14.75
2022-12-22T07:21:29.272Z,14.93
2022-12-22T07:23:56.531Z,13.43
2022-12-22T07:26:26.299Z,14.95
2022-12-22T07:28:58.584Z,14.40
2022-12-22T07:31:25.892Z,14.98
2022-12-22T07:33:55.631Z,14.10
2022-12-22T07:36:22.897Z,13.52
2022-12-22T07:38:51.852Z,13.50
2022-12-22T07:41:39.164Z,12.73
2022-12-22T07:44:08.921Z,13.30
2022-12-22T07:46:42.026Z,14.15
2022-12-22T07:49:42.933Z,13.98
2022-12-22T07:52:12.664Z,14.43
2022-12-22T07:54:42.520Z,14.77
2022-12-22T07:57:09.860Z,15.27
2022-12-22T07:59:37.124Z,14.13
2022-12-22T08:02:04.464Z,15.77
2022-12-22T08:04:31.896Z,15.82
2022-12-22T08:06:59.191Z,15.63
2022-12-22T08:09:26.422Z,14.68
2022-12-22T08:11:58.437Z,14.23
2022-12-22T08:14:27.788Z,14.13
2022-12-22T08:16:57.144Z,14.30
2022-12-22T08:19:24.431Z,14.70
2022-12-22T08:21:56.232Z,13.80
2022-12-22T08:24:26.188Z,15.45
2022-12-22T08:26:57.335Z,13.48
2022-12-22T08:29:32.487Z,15.27
2022-12-22T08:32:01.223Z,14.07
2022-12-22T08:34:31.207Z,14.02
2022-12-22T08:37:02.897Z,14.70
2022-12-22T08:39:34.995Z,15.00
2022-12-22T08:42:05.239Z,14.90
2022-12-22T08:44:32.679Z,15.27
2022-12-22T08:47:00.579Z,14.68
2022-12-22T08:49:28.000Z,14.05
2022-12-22T08:51:55.319Z,13.98
2022-12-22T08:54:22.973Z,15.65
2022-12-22T08:56:54.958Z,15.18
2022-12-22T08:59:24.575Z,16.30
2022-12-22T09:01:52.080Z,14.50
2022-12-22T09:04:25.461Z,14.52
2022-12-22T09:06:55.422Z,13.70
2022-12-22T09:09:22.799Z,14.63
2022-12-22T09:11:50.582Z,14.82
2022-12-22T09:14:18.063Z,14.43
2022-12-22T09:16:45.403Z,15.48
2022-12-22T09:19:12.759Z,13.98
2022-12-22T09:21:42.476Z,14.02
2022-12-22T09:24:12.454Z,13.18
2022-12-22T09:26:39.790Z,12.55
2022-12-22T09:29:07.277Z,13.70
2022-12-22T09:31:34.707Z,12.30
2022-12-22T09:34:02.055Z,11.88
2022-12-22T09:36:35.670Z,11.18
2022-12-22T09:39:07.631Z,11.15
2022-12-22T09:41:48.134Z,10.38
2022-12-22T09:44:24.372Z,11.40
2022-12-22T09:46:54.342Z,10.82
2022-12-22T09:49:22.764Z,10.05
2022-12-22T09:52:02.582Z,10.63
2022-12-22T09:54:32.416Z,9.88
2022-12-22T09:56:59.769Z,8.70
2022-12-22T09:59:31.181Z,8.82
2022-12-22T10:02:22.083Z,9.02
2022-12-22T10:05:28.272Z,9.45
2022-12-22T10:08:01.880Z,9.20
2022-12-22T10:10:31.351Z,9.63
2022-12-22T10:13:01.514Z,8.48
2022-12-22T10:15:40.898Z,7.95
2022-12-22T10:18:15.380Z,7.47
2022-12-22T10:20:48.192Z,7.38
2022-12-22T10:23:28.102Z,7.43
2022-12-22T10:28:49.521Z,7.53
2022-12-22T10:31:28.577Z,7.28
2022-12-22T10:34:09.762Z,7.00
2022-12-22T10:36:38.434Z,6.88
2022-12-22T10:39:11.007Z,7.65
2022-12-22T10:41:42.998Z,7.07
2022-12-22T10:44:26.560Z,7.35
2022-12-22T10:46:59.812Z,7.47
2022-12-22T10:52:29.669Z,7.88
2022-12-22T10:55:21.607Z,9.20
2022-12-22T10:57:50.166Z,9.30
2022-12-22T11:00:31.477Z,8.45
2022-12-22T11:03:01.570Z,7.75
2022-12-22T11:05:29.588Z,7.10
2022-12-22T11:08:00.995Z,6.25
2022-12-22T11:10:41.406Z,6.28
2022-12-22T11:13:54.338Z,6.53
2022-12-22T11:16:37.933Z,6.78
2022-12-22T11:19:13.619Z,7.03
2022-12-22T11:21:48.704Z,7.40
2022-12-22T11:24:28.946Z,6.53
2022-12-22T11:27:11.594Z,6.78
2022-12-22T11:29:47.884Z,6.88
2022-12-22T11:32:42.835Z,6.57
2022-12-22T11:35:36.108Z,5.78
2022-12-22T11:38:20.403Z,6.47
2022-12-22T11:40:55.948Z,5.85
2022-12-22T11:43:38.111Z,5.60
2022-12-22T11:46:10.469Z,6.15
2022-12-22T11:48:43.673Z,5.28
2022-12-22T11:51:45.079Z,6.15
2022-12-22T11:54:21.247Z,5.35
2022-12-22T11:57:12.739Z,4.45
2022-12-22T12:00:08.254Z,4.15
2022-12-22T12:02:57.034Z,4.00
2022-12-22T12:05:42.359Z,3.95
2022-12-22T12:08:29.520Z,3.22
2022-12-22T12:11:35.798Z,2.88
2022-12-22T12:14:33.421Z,2.72
2022-12-22T12:17:18.987Z,2.47
2022-12-22T12:19:46.233Z,2.03
2022-12-22T12:22:35.827Z,2.13
2022-12-22T12:25:34.009Z,1.90
2022-12-22T12:28:16.337Z,1.60
2022-12-22T12:30:56.847Z,1.70
2022-12-22T12:33:36.454Z,1.35
2022-12-22T12:36:16.773Z,1.60
2022-12-22T12:39:09.497Z,1.40
2022-12-22T12:41:45.667Z,1.33
2022-12-22T12:44:19.122Z,0.80
2022-12-22T12:49:36.279Z,0.80
2022-12-22T12:52:11.908Z,1.00
2022-12-22T12:54:40.227Z,1.00
2022-12-22T12:57:07.516Z,0.90
2022-12-22T12:59:43.795Z,0.95
2022-12-22T13:02:35.344Z,1.00
2022-12-22T13:05:28.081Z,0.80
2022-12-22T13:08:10.725Z,1.00
2022-12-22T13:10:49.575Z,0.70
2022-12-22T13:13:28.177Z,0.88
2022-12-22T13:16:04.131Z,0.82
2022-12-22T13:18:34.707Z,0.80
2022-12-22T13:21:42.589Z,1.15
2022-12-22T13:24:24.646Z,1.02
2022-12-22T13:26:55.256Z,1.17
2022-12-22T13:29:22.642Z,1.30
2022-12-22T13:32:03.887Z,1.30
2022-12-22T13:35:29.584Z,1.50
2022-12-22T13:37:47.083Z,1.33
2022-12-22T13:40:27.455Z,1.65
2022-12-22T13:43:03.393Z,1.73
2022-12-22T13:45:41.124Z,1.58
2022-12-22T13:48:33.398Z,1.50
2022-12-22T13:51:05.735Z,1.60
2022-12-22T13:56:26.240Z,1.70
2022-12-22T13:59:00.222Z,1.50
2022-12-22T14:01:30.035Z,1.52
2022-12-22T14:04:04.448Z,1.65
2022-12-22T14:06:36.255Z,2.05
2022-12-22T14:09:28.305Z,1.58
2022-12-22T14:11:57.926Z,2.00
2022-12-22T14:14:40.305Z,2.03
2022-12-22T14:17:23.083Z,2.17
2022-12-22T14:19:57.945Z,2.47
2022-12-22T14:22:42.237Z,1.90
2022-12-22T14:25:32.064Z,1.92
2022-12-22T14:28:00.105Z,2.22
2022-12-22T14:30:38.605Z,2.17
2022-12-22T14:33:26.723Z,2.13
2022-12-22T14:36:16.765Z,2.30
2022-12-22T14:38:49.108Z,2.40
2022-12-22T14:41:44.114Z,2.35
2022-12-22T14:44:18.885Z,2.30
2022-12-22T14:47:08.823Z,2.25
2022-12-22T14:49:56.254Z,2.58
2022-12-22T14:52:35.806Z,2.70
2022-12-22T14:55:20.735Z,2.70
2022-12-22T14:57:54.013Z,2.67
2022-12-22T15:00:24.326Z,3.17
2022-12-22T15:03:01.479Z,3.42
2022-12-22T15:05:39.045Z,2.97
2022-12-22T15:08:27.074Z,3.80
2022-12-22T15:10:54.373Z,3.33
2022-12-22T15:13:24.375Z,2.90
2022-12-22T15:15:52.794Z,3.40
2022-12-22T15:18:25.970Z,3.80
2022-12-22T15:20:57.235Z,3.90
2022-12-22T15:23:24.832Z,3.50
2022-12-22T15:25:54.202Z,3.63
2022-12-22T15:28:22.024Z,3.55
2022-12-22T15:30:54.768Z,3.53
2022-12-22T15:33:24.585Z,3.78
2022-12-22T15:35:53.486Z,3.80
2022-12-22T15:38:24.467Z,3.75
2022-12-22T15:40:53.141Z,3.92
2022-12-22T15:46:17.186Z,3.67
2022-12-22T15:48:49.972Z,3.63
2022-12-22T15:51:33.050Z,3.90
2022-12-22T15:54:02.232Z,3.80
2022-12-22T15:56:32.461Z,3.50
2022-12-22T15:59:03.956Z,3.30
2022-12-22T16:01:32.827Z,4.00
2022-12-22T16:04:00.357Z,3.97
2022-12-22T16:06:28.643Z,3.28
2022-12-22T16:09:00.843Z,4.50
2022-12-22T16:11:39.504Z,3.47
2022-12-22T16:14:06.932Z,3.60
2022-12-22T16:16:34.281Z,3.38
2022-12-22T16:19:01.654Z,4.18
2022-12-22T16:21:32.510Z,3.90
2022-12-22T16:24:01.619Z,4.53
2022-12-22T16:26:29.069Z,4.75
2022-12-22T16:28:58.272Z,4.05
2022-12-22T16:31:26.390Z,4.18
2022-12-22T16:33:53.828Z,4.13
2022-12-22T16:36:23.543Z,4.13
2022-12-22T16:38:50.837Z,3.95
2022-12-22T16:41:26.713Z,4.43
2022-12-22T16:46:43.189Z,3.90
2022-12-22T16:49:22.964Z,4.40
2022-12-22T16:51:54.730Z,4.20
2022-12-22T16:54:24.504Z,4.80
2022-12-22T16:56:53.930Z,4.65
2022-12-22T16:59:23.353Z,5.28
2022-12-22T17:01:59.980Z,4.60
2022-12-22T17:04:32.055Z,4.88
2022-12-22T17:07:00.844Z,5.45
2022-12-22T17:09:31.887Z,5.15
2022-12-22T17:12:01.027Z,5.00
2022-12-22T17:14:46.907Z,4.60
2022-12-22T17:17:18.831Z,5.00
2022-12-22T17:19:46.037Z,4.47
2022-12-22T17:22:27.230Z,3.92
2022-12-22T17:24:56.821Z,4.78
2022-12-22T17:27:31.904Z,5.25
2022-12-22T17:30:03.505Z,4.28
2022-12-22T17:32:35.472Z,5.10
2022-12-22T17:35:05.065Z,4.85
2022-12-22T17:37:32.309Z,5.00
2022-12-22T17:40:02.133Z,4.28
2022-12-22T17:42:31.484Z,5.80
2022-12-22T17:45:03.017Z,5.00
2022-12-22T17:47:40.432Z,4.78
2022-12-22T17:50:16.892Z,4.57
2022-12-22T17:52:47.577Z,4.85
2022-12-22T17:56:07.269Z,4.72
2022-12-22T17:58:30.170Z,4.32
2022-12-22T18:00:59.174Z,4.35
2022-12-22T18:03:32.108Z,3.95
2022-12-22T18:05:59.995Z,3.85
2022-12-22T18:08:27.397Z,4.07
2022-12-22T18:11:01.025Z,4.20
2022-12-22T18:13:30.507Z,3.65
2022-12-22T18:16:01.907Z,3.13
2022-12-22T18:18:30.386Z,3.08
2022-12-22T18:21:06.058Z,2.47
2022-12-22T18:23:36.512Z,3.42
2022-12-22T18:26:08.340Z,3.47
2022-12-22T18:28:36.554Z,3.55
2022-12-22T18:31:06.267Z,2.72
2022-12-22T18:33:33.622Z,2.90
2022-12-22T18:36:03.433Z,2.58
2022-12-22T18:38:36.184Z,2.92
2022-12-22T18:41:03.703Z,3.10
2022-12-22T18:43:30.967Z,2.38
2022-12-22T18:45:58.294Z,2.85
2022-12-22T18:48:27.732Z,3.33
2022-12-22T18:50:57.493Z,5.57
2022-12-22T18:53:28.570Z,7.40
2022-12-22T18:55:59.004Z,5.65
2022-12-22T18:58:26.803Z,3.05
2022-12-22T19:00:57.175Z,2.45
2022-12-22T19:03:29.164Z,2.95
2022-12-22T19:05:57.374Z,3.17
2022-12-22T19:08:27.631Z,2.95
2022-12-22T19:11:05.183Z,2.33
2022-12-22T19:13:32.353Z,2.78
2022-12-22T19:16:02.511Z,2.10
2022-12-22T19:18:32.507Z,3.00
2022-12-22T19:21:02.105Z,3.05
2022-12-22T19:23:31.893Z,2.60
2022-12-22T19:26:08.731Z,2.60
2022-12-22T19:28:42.637Z,2.45
2022-12-22T19:31:20.698Z,2.35
2022-12-22T19:33:48.327Z,2.53
2022-12-22T19:36:30.233Z,2.92
2022-12-22T19:39:03.819Z,2.55
2022-12-22T19:41:40.580Z,2.75
2022-12-22T19:44:25.118Z,2.60
2022-12-22T19:46:53.902Z,2.55
2022-12-22T19:49:23.845Z,2.58
2022-12-22T19:51:55.249Z,2.83
2022-12-22T19:54:24.902Z,2.70
2022-12-22T19:56:55.325Z,2.38
2022-12-22T19:59:38.042Z,2.67
2022-12-22T20:02:26.702Z,2.30
2022-12-22T20:05:00.283Z,3.28
2022-12-22T20:07:36.942Z,3.00
2022-12-22T20:10:07.250Z,2.80
2022-12-22T20:12:40.819Z,2.50
2022-12-22T20:17:53.141Z,2.63
2022-12-22T20:20:35.013Z,2.80
2022-12-22T20:23:21.018Z,2.78
2022-12-22T20:25:56.488Z,2.80
2022-12-22T20:28:28.783Z,3.35
2022-12-22T20:30:58.593Z,2.90
2022-12-22T20:33:26.767Z,2.78
2022-12-22T20:35:55.864Z,2.47
2022-12-22T20:38:36.743Z,2.17
2022-12-22T20:41:08.579Z,2.33
2022-12-22T20:43:37.068Z,2.60
2022-12-22T20:46:15.411Z,2.80
2022-12-22T20:48:53.997Z,2.80
2022-12-22T20:51:23.075Z,4.43
2022-12-22T20:53:51.051Z,2.35
2022-12-22T20:56:26.470Z,3.25
2022-12-22T20:58:54.416Z,5.55
2022-12-22T21:01:23.422Z,3.30
2022-12-22T21:03:57.709Z,3.10
2022-12-22T21:06:29.111Z,2.90
2022-12-22T21:09:00.908Z,2.30
2022-12-22T21:11:30.019Z,1.95
2022-12-22T21:13:58.362Z,2.35
2022-12-22T21:16:28.648Z,2.38
2022-12-22T21:18:55.961Z,2.45
2022-12-22T21:21:23.815Z,2.75
2022-12-22T21:23:53.688Z,2.40
2022-12-22T21:26:31.573Z,2.28
2022-12-22T21:29:02.661Z,2.70
2022-12-22T21:31:30.043Z,2.30
2022-12-22T21:33:57.433Z,2.70
2022-12-22T21:36:28.228Z,2.58
2022-12-22T21:39:01.423Z,2.85
2022-12-22T21:41:48.389Z,2.53
2022-12-22T21:44:15.801Z,2.42
2022-12-22T21:46:45.701Z,2.90
2022-12-22T21:49:26.746Z,2.58
2022-12-22T21:51:59.321Z,2.53
2022-12-22T21:54:29.083Z,2.70
2022-12-22T21:56:56.535Z,2.45
2022-12-22T21:59:23.928Z,2.85
2022-12-22T22:01:53.381Z,2.75
2022-12-22T22:04:23.880Z,2.83
2022-12-22T22:06:53.270Z,2.47
2022-12-22T22:09:22.831Z,2.55
2022-12-22T22:12:08.608Z,2.63
2022-12-22T22:14:38.407Z,2.30
2022-12-22T22:17:05.723Z,2.17
2022-12-22T22:19:33.049Z,2.28
2022-12-22T22:22:00.301Z,2.88
2022-12-22T22:24:27.716Z,2.67
2022-12-22T22:26:56.499Z,2.45
2022-12-22T22:29:23.805Z,2.83
2022-12-22T22:31:51.143Z,3.28
2022-12-22T22:34:22.913Z,2.95
2022-12-22T22:36:53.418Z,2.80
2022-12-22T22:39:23.502Z,2.80
2022-12-22T22:41:52.870Z,2.80
2022-12-22T22:44:20.186Z,3.47
2022-12-22T22:46:49.757Z,3.33
2022-12-22T22:49:26.208Z,3.17
2022-12-22T22:51:55.874Z,3.47
2022-12-22T22:54:25.764Z,3.53
2022-12-22T22:56:53.700Z,3.38
2022-12-22T22:59:20.945Z,3.65
2022-12-22T23:01:48.293Z,3.65
2022-12-22T23:04:15.727Z,4.20
2022-12-22T23:06:43.208Z,3.88
2022-12-22T23:09:13.003Z,4.30
2022-12-22T23:11:44.841Z,4.28
2022-12-22T23:14:12.199Z,4.70
2022-12-22T23:16:39.521Z,3.90
2022-12-22T23:19:06.908Z,4.18
2022-12-22T23:21:37.264Z,4.00
2022-12-22T23:24:04.721Z,4.80
2022-12-22T23:26:32.071Z,4.60
2022-12-22T23:29:04.014Z,5.07
2022-12-22T23:31:36.873Z,4.90
2022-12-22T23:34:04.991Z,4.68
2022-12-22T23:36:32.574Z,5.38
2022-12-22T23:39:04.427Z,4.85
2022-12-22T23:41:31.784Z,4.43
2022-12-22T23:43:59.029Z,5.13
2022-12-22T23:46:26.422Z,5.05
2022-12-22T23:48:55.995Z,5.03
2022-12-22T23:51:26.764Z,5.20
2022-12-22T23:53:57.642Z,4.90
2022-12-22T23:56:27.067Z,4.90
2022-12-22T23:58:55.274Z,5.70
